Time,TemperatureF,DewpointF,PressureIn,WindDirection,WindDirectionDegrees,WindSpeedMPH,WindSpeedGustMPH,Humidity,HourlyPrecipIn,Conditions,Clouds,dailyrainin,SolarRadiationWatts/m^2,SoftwareType,DateUTC
2013-04-24 00:21:00,26.0,13.0,-100.00,SW,218,3.0,8.0,58,0.00,,,0.01,1.000000,,2013-04-24 06:21:00,
2013-04-24 00:32:00,26.0,13.0,-100.00,SW,218,3.0,8.0,58,0.00,,,0.01,1.000000,,2013-04-24 06:32:00,
2013-04-24 00:42:00,26.0,13.0,-100.00,SW,218,3.0,8.0,58,0.00,,,0.01,1.000000,,2013-04-24 06:42:00,
2013-04-24 00:51:00,26.0,13.0,-100.00,SW,218,3.0,8.0,58,0.00,,,0.01,1.000000,,2013-04-24 06:51:00,
2013-04-24 01:22:00,25.0,13.0,-100.00,WSW,258,5.0,11.0,59,0.00,,,0.01,1.000000,,2013-04-24 07:22:00,
2013-04-24 01:32:00,25.0,13.0,-100.00,WSW,258,5.0,11.0,59,0.00,,,0.01,1.000000,,2013-04-24 07:32:00,
2013-04-24 01:41:00,25.0,13.0,-100.00,WSW,258,5.0,11.0,59,0.00,,,0.01,1.000000,,2013-04-24 07:41:00,
2013-04-24 01:52:00,25.0,13.0,-100.00,WSW,258,5.0,11.0,59,0.00,,,0.01,1.000000,,2013-04-24 07:52:00,
2013-04-24 02:21:00,22.0,13.0,-100.00,NNW,328,2.0,8.0,69,0.00,,,0.01,0.000000,,2013-04-24 08:21:00,
2013-04-24 02:33:00,22.0,13.0,-100.00,NNW,328,2.0,8.0,69,0.00,,,0.01,0.000000,,2013-04-24 08:33:00,
2013-04-24 02:42:00,22.0,13.0,-100.00,NNW,328,2.0,8.0,69,0.00,,,0.01,0.000000,,2013-04-24 08:42:00,
2013-04-24 02:51:00,22.0,13.0,-100.00,NNW,328,2.0,8.0,69,0.00,,,0.01,0.000000,,2013-04-24 08:51:00,
2013-04-24 03:21:00,22.0,14.0,-100.00,NNW,329,6.0,8.0,70,0.00,,,0.01,0.000000,,2013-04-24 09:21:00,
2013-04-24 03:33:00,22.0,14.0,-100.00,NNW,329,6.0,8.0,70,0.00,,,0.01,0.000000,,2013-04-24 09:33:00,
2013-04-24 03:42:00,22.0,14.0,-100.00,NNW,329,6.0,8.0,70,0.00,,,0.01,0.000000,,2013-04-24 09:42:00,
2013-04-24 03:53:00,22.0,14.0,-100.00,NNW,329,6.0,8.0,70,0.00,,,0.01,0.000000,,2013-04-24 09:53:00,
2013-04-24 04:22:00,22.0,16.0,-100.00,NNW,339,5.0,9.0,78,0.00,,,0.01,1.000000,,2013-04-24 10:22:00,
2013-04-24 04:32:00,22.0,16.0,-100.00,NNW,339,5.0,9.0,78,0.00,,,0.01,1.000000,,2013-04-24 10:32:00,
2013-04-24 04:42:00,22.0,16.0,-100.00,NNW,339,5.0,9.0,78,0.00,,,0.01,1.000000,,2013-04-24 10:42:00,
2013-04-24 04:52:00,22.0,16.0,-100.00,NNW,339,5.0,9.0,78,0.00,,,0.01,1.000000,,2013-04-24 10:52:00,
2013-04-24 05:21:00,19.0,16.0,-100.00,NNE,20,6.0,10.0,86,0.00,,,0.01,0.000000,,2013-04-24 11:21:00,
2013-04-24 05:32:00,19.0,16.0,-100.00,NNE,20,6.0,10.0,86,0.00,,,0.01,0.000000,,2013-04-24 11:32:00,
2013-04-24 05:42:00,19.0,16.0,-100.00,NNE,20,6.0,10.0,86,0.00,,,0.01,0.000000,,2013-04-24 11:42:00,
2013-04-24 05:52:00,19.0,16.0,-100.00,NNE,20,6.0,10.0,86,0.00,,,0.01,0.000000,,2013-04-24 11:52:00,
2013-04-24 06:22:00,20.0,16.0,-100.00,North,351,5.0,7.0,86,0.00,,,0.01,0.000000,,2013-04-24 12:22:00,
2013-04-24 06:32:00,20.0,16.0,-100.00,North,351,5.0,7.0,86,0.00,,,0.01,0.000000,,2013-04-24 12:32:00,
2013-04-24 06:42:00,20.0,16.0,-100.00,North,351,5.0,7.0,86,0.00,,,0.01,0.000000,,2013-04-24 12:42:00,
2013-04-24 06:51:00,20.0,16.0,-100.00,North,351,5.0,7.0,86,0.00,,,0.01,0.000000,,2013-04-24 12:51:00,
2013-04-24 07:22:00,17.0,15.0,-100.00,North,6,3.0,6.0,90,0.00,,,0.01,15.000000,,2013-04-24 13:22:00,
2013-04-24 07:31:00,17.0,15.0,-100.00,North,6,3.0,6.0,90,0.00,,,0.01,15.000000,,2013-04-24 13:31:00,
2013-04-24 07:41:00,17.0,15.0,-100.00,North,6,3.0,6.0,90,0.00,,,0.01,15.000000,,2013-04-24 13:41:00,
2013-04-24 07:52:00,17.0,15.0,-100.00,North,6,3.0,6.0,90,0.00,,,0.01,15.000000,,2013-04-24 13:52:00,
2013-04-24 08:21:00,17.0,12.0,-100.00,NNE,24,8.0,9.0,80,0.00,,,0.01,161.000000,,2013-04-24 14:21:00,
2013-04-24 08:32:00,17.0,12.0,-100.00,NNE,24,8.0,9.0,80,0.00,,,0.01,161.000000,,2013-04-24 14:32:00,
2013-04-24 08:41:00,17.0,12.0,-100.00,NNE,24,8.0,9.0,80,0.00,,,0.01,161.000000,,2013-04-24 14:41:00,
2013-04-24 08:51:00,17.0,12.0,-100.00,NNE,24,8.0,9.0,80,0.00,,,0.01,161.000000,,2013-04-24 14:51:00,
2013-04-24 09:21:00,26.0,15.0,-100.00,NE,35,6.0,8.0,63,0.00,,,0.01,354.000000,,2013-04-24 15:21:00,
2013-04-24 09:33:00,26.0,15.0,-100.00,NE,35,6.0,8.0,63,0.00,,,0.01,354.000000,,2013-04-24 15:33:00,
2013-04-24 09:42:00,26.0,15.0,-100.00,NE,35,6.0,8.0,63,0.00,,,0.01,354.000000,,2013-04-24 15:42:00,
2013-04-24 09:52:00,26.0,15.0,-100.00,NE,35,6.0,8.0,63,0.00,,,0.01,354.000000,,2013-04-24 15:52:00,
2013-04-24 10:23:00,31.0,16.0,-100.00,NNE,13,5.0,9.0,54,0.00,,,0.00,550.000000,,2013-04-24 16:23:00,
2013-04-24 10:32:00,31.0,16.0,-100.00,NNE,13,5.0,9.0,54,0.00,,,0.00,550.000000,,2013-04-24 16:32:00,
2013-04-24 10:42:00,31.0,16.0,-100.00,NNE,13,5.0,9.0,54,0.00,,,0.00,550.000000,,2013-04-24 16:42:00,
2013-04-24 10:52:00,31.0,16.0,-100.00,NNE,13,5.0,9.0,54,0.00,,,0.00,550.000000,,2013-04-24 16:52:00,
2013-04-24 11:22:00,40.0,16.0,-100.00,NE,42,5.0,6.0,37,0.00,,,0.00,725.000000,,2013-04-24 17:22:00,
2013-04-24 11:32:00,40.0,16.0,-100.00,NE,42,5.0,6.0,37,0.00,,,0.00,725.000000,,2013-04-24 17:32:00,
2013-04-24 11:42:00,40.0,16.0,-100.00,NE,42,5.0,6.0,37,0.00,,,0.00,725.000000,,2013-04-24 17:42:00,
2013-04-24 11:51:00,40.0,16.0,-100.00,NE,42,5.0,6.0,37,0.00,,,0.00,725.000000,,2013-04-24 17:51:00,
2013-04-24 12:21:00,42.0,14.0,-100.00,ENE,59,3.0,6.0,32,0.00,,,0.00,857.000000,,2013-04-24 18:21:00,
2013-04-24 12:33:00,42.0,14.0,-100.00,ENE,59,3.0,6.0,32,0.00,,,0.00,857.000000,,2013-04-24 18:33:00,
2013-04-24 12:42:00,42.0,14.0,-100.00,ENE,59,3.0,6.0,32,0.00,,,0.00,857.000000,,2013-04-24 18:42:00,
2013-04-24 12:52:00,42.0,14.0,-100.00,ENE,59,3.0,6.0,32,0.00,,,0.00,857.000000,,2013-04-24 18:52:00,
2013-04-24 13:21:00,43.0,14.0,-100.00,SSE,156,4.0,9.0,30,0.00,,,0.00,938.000000,,2013-04-24 19:21:00,
2013-04-24 13:31:00,43.0,14.0,-100.00,SSE,156,4.0,9.0,30,0.00,,,0.00,938.000000,,2013-04-24 19:31:00,
2013-04-24 13:42:00,43.0,14.0,-100.00,SSE,156,4.0,9.0,30,0.00,,,0.00,938.000000,,2013-04-24 19:42:00,
2013-04-24 13:52:00,43.0,14.0,-100.00,SSE,156,4.0,9.0,30,0.00,,,0.00,938.000000,,2013-04-24 19:52:00,
2013-04-24 14:21:00,45.0,16.0,-100.00,North,4,3.0,10.0,31,0.00,,,0.00,951.000000,,2013-04-24 20:21:00,
2013-04-24 14:42:00,45.0,16.0,-100.00,North,4,3.0,10.0,31,0.00,,,0.00,951.000000,,2013-04-24 20:42:00,
2013-04-24 14:51:00,45.0,16.0,-100.00,North,4,3.0,10.0,31,0.00,,,0.00,951.000000,,2013-04-24 20:51:00,
2013-04-24 15:21:00,44.0,13.0,-100.00,ENE,67,6.0,9.0,28,0.00,,,0.00,913.000000,,2013-04-24 21:21:00,
2013-04-24 15:32:00,44.0,13.0,-100.00,ENE,67,6.0,9.0,28,0.00,,,0.00,913.000000,,2013-04-24 21:32:00,
2013-04-24 15:42:00,44.0,13.0,-100.00,ENE,67,6.0,9.0,28,0.00,,,0.00,913.000000,,2013-04-24 21:42:00,
2013-04-24 15:52:00,44.0,13.0,-100.00,ENE,67,6.0,9.0,28,0.00,,,0.00,913.000000,,2013-04-24 21:52:00,
2013-04-24 16:22:00,46.0,14.0,-100.00,NE,48,3.0,10.0,27,0.00,,,0.00,825.000000,,2013-04-24 22:22:00,
2013-04-24 16:33:00,46.0,14.0,-100.00,NE,48,3.0,10.0,27,0.00,,,0.00,825.000000,,2013-04-24 22:33:00,
2013-04-24 16:42:00,46.0,14.0,-100.00,NE,48,3.0,10.0,27,0.00,,,0.00,825.000000,,2013-04-24 22:42:00,
2013-04-24 16:52:00,46.0,14.0,-100.00,NE,48,3.0,10.0,27,0.00,,,0.00,825.000000,,2013-04-24 22:52:00,
2013-04-24 17:21:00,44.0,11.0,-100.00,SSE,164,7.0,12.0,26,0.00,,,0.00,691.000000,,2013-04-24 23:21:00,
2013-04-24 17:32:00,44.0,11.0,-100.00,SSE,164,7.0,12.0,26,0.00,,,0.00,691.000000,,2013-04-24 23:32:00,
2013-04-24 17:42:00,44.0,11.0,-100.00,SSE,164,7.0,12.0,26,0.00,,,0.00,691.000000,,2013-04-24 23:42:00,
2013-04-24 17:51:00,44.0,11.0,-100.00,SSE,164,7.0,12.0,26,0.00,,,0.00,691.000000,,2013-04-24 23:51:00,
2013-04-24 18:22:00,43.0,19.0,-100.00,NNE,14,4.0,12.0,38,0.00,,,0.00,516.000000,,2013-04-25 00:22:00,
2013-04-24 19:22:00,45.0,15.0,-100.00,WNW,299,1.0,6.0,30,0.00,,,0.00,314.000000,,2013-04-25 01:22:00,
2013-04-24 19:32:00,45.0,15.0,-100.00,WNW,299,1.0,6.0,30,0.00,,,0.00,314.000000,,2013-04-25 01:32:00,
2013-04-24 19:42:00,45.0,15.0,-100.00,WNW,299,1.0,6.0,30,0.00,,,0.00,314.000000,,2013-04-25 01:42:00,
2013-04-24 19:52:00,45.0,15.0,-100.00,WNW,299,1.0,6.0,30,0.00,,,0.00,314.000000,,2013-04-25 01:52:00,
2013-04-24 20:22:00,37.0,12.0,-100.00,NW,310,3.0,7.0,35,0.00,,,0.00,74.000000,,2013-04-25 02:22:00,
2013-04-24 20:32:00,37.0,12.0,-100.00,NW,310,3.0,7.0,35,0.00,,,0.00,74.000000,,2013-04-25 02:32:00,
2013-04-24 20:42:00,37.0,12.0,-100.00,NW,310,3.0,7.0,35,0.00,,,0.00,74.000000,,2013-04-25 02:42:00,
2013-04-24 20:51:00,37.0,12.0,-100.00,NW,310,3.0,7.0,35,0.00,,,0.00,74.000000,,2013-04-25 02:51:00,
2013-04-24 21:22:00,34.0,13.0,-100.00,WSW,243,5.0,9.0,41,0.00,,,0.00,4.000000,,2013-04-25 03:22:00,
2013-04-24 21:33:00,34.0,13.0,-100.00,WSW,243,5.0,9.0,41,0.00,,,0.00,4.000000,,2013-04-25 03:33:00,
2013-04-24 21:42:00,34.0,13.0,-100.00,WSW,243,5.0,9.0,41,0.00,,,0.00,4.000000,,2013-04-25 03:42:00,
2013-04-24 21:52:00,34.0,13.0,-100.00,WSW,243,5.0,9.0,41,0.00,,,0.00,4.000000,,2013-04-25 03:52:00,
2013-04-24 22:22:00,32.0,11.0,-100.00,SSW,204,3.0,8.0,41,0.00,,,0.00,1.000000,,2013-04-25 04:22:00,
2013-04-24 22:32:00,32.0,11.0,-100.00,SSW,204,3.0,8.0,41,0.00,,,0.00,1.000000,,2013-04-25 04:32:00,
2013-04-24 22:43:00,32.0,11.0,-100.00,SSW,204,3.0,8.0,41,0.00,,,0.00,1.000000,,2013-04-25 04:43:00,
2013-04-24 22:52:00,32.0,11.0,-100.00,SSW,204,3.0,8.0,41,0.00,,,0.00,1.000000,,2013-04-25 04:52:00,
2013-04-24 23:21:00,29.0,12.0,-100.00,South,182,4.0,12.0,49,0.00,,,0.00,1.000000,,2013-04-25 05:21:00,
2013-04-24 23:32:00,29.0,12.0,-100.00,South,182,4.0,12.0,49,0.00,,,0.00,1.000000,,2013-04-25 05:32:00,
2013-04-24 23:42:00,29.0,12.0,-100.00,South,182,4.0,12.0,49,0.00,,,0.00,1.000000,,2013-04-25 05:42:00,
2013-04-24 23:51:00,29.0,12.0,-100.00,South,182,4.0,12.0,49,0.00,,,0.00,1.000000,,2013-04-25 05:51:00,